sensor_id;sensor_type;location;lat;lon;timestamp;P1;durP1;ratioP1;P2;durP2;ratioP2
67352;SDS011;54238;52.278;21.056;2023-02-24T00:00:41;39.60;;;19.70;;
67352;SDS011;54238;52.278;21.056;2023-02-24T00:03:17;50.50;;;24.80;;
67352;SDS011;54238;52.278;21.056;2023-02-24T00:05:49;57.80;;;28.10;;
67352;SDS011;54238;52.278;21.056;2023-02-24T00:08:22;53.90;;;26.00;;
67352;SDS011;54238;52.278;21.056;2023-02-24T00:10:55;53.20;;;27.90;;
67352;SDS011;54238;52.278;21.056;2023-02-24T00:13:28;56.70;;;27.50;;
67352;SDS011;54238;52.278;21.056;2023-02-24T00:16:00;49.80;;;26.50;;
67352;SDS011;54238;52.278;21.056;2023-02-24T00:18:32;52.10;;;25.80;;
67352;SDS011;54238;52.278;21.056;2023-02-24T00:21:08;59.90;;;30.30;;
67352;SDS011;54238;52.278;21.056;2023-02-24T00:23:44;48.60;;;25.70;;
67352;SDS011;54238;52.278;21.056;2023-02-24T00:26:14;52.50;;;27.20;;
67352;SDS011;54238;52.278;21.056;2023-02-24T00:28:45;53.30;;;28.40;;
67352;SDS011;54238;52.278;21.056;2023-02-24T00:31:17;60.40;;;29.70;;
67352;SDS011;54238;52.278;21.056;2023-02-24T00:33:45;52.20;;;26.10;;
67352;SDS011;54238;52.278;21.056;2023-02-24T00:36:16;48.90;;;24.90;;
67352;SDS011;54238;52.278;21.056;2023-02-24T00:38:51;46.30;;;25.40;;
67352;SDS011;54238;52.278;21.056;2023-02-24T00:41:27;48.60;;;24.50;;
67352;SDS011;54238;52.278;21.056;2023-02-24T00:44:01;44.20;;;23.00;;
67352;SDS011;54238;52.278;21.056;2023-02-24T00:46:35;52.30;;;27.00;;
67352;SDS011;54238;52.278;21.056;2023-02-24T00:49:07;47.10;;;24.10;;
67352;SDS011;54238;52.278;21.056;2023-02-24T00:51:45;53.40;;;26.20;;
67352;SDS011;54238;52.278;21.056;2023-02-24T00:54:20;54.60;;;27.90;;
67352;SDS011;54238;52.278;21.056;2023-02-24T00:59:52;57.20;;;25.90;;
67352;SDS011;54238;52.278;21.056;2023-02-24T01:02:19;66.40;;;28.80;;
67352;SDS011;54238;52.278;21.056;2023-02-24T01:04:50;52.10;;;26.90;;
67352;SDS011;54238;52.278;21.056;2023-02-24T01:07:18;47.40;;;22.60;;
67352;SDS011;54238;52.278;21.056;2023-02-24T01:09:49;67.60;;;30.10;;
67352;SDS011;54238;52.278;21.056;2023-02-24T01:15:16;57.90;;;27.70;;
67352;SDS011;54238;52.278;21.056;2023-02-24T01:17:50;55.20;;;27.70;;
67352;SDS011;54238;52.278;21.056;2023-02-24T01:20:20;58.10;;;29.80;;
67352;SDS011;54238;52.278;21.056;2023-02-24T01:22:50;49.50;;;25.80;;
67352;SDS011;54238;52.278;21.056;2023-02-24T01:25:26;46.50;;;22.70;;
67352;SDS011;54238;52.278;21.056;2023-02-24T01:27:53;54.60;;;26.70;;
67352;SDS011;54238;52.278;21.056;2023-02-24T01:30:20;54.50;;;27.30;;
67352;SDS011;54238;52.278;21.056;2023-02-24T01:32:49;47.50;;;24.10;;
67352;SDS011;54238;52.278;21.056;2023-02-24T01:35:20;51.10;;;23.30;;
67352;SDS011;54238;52.278;21.056;2023-02-24T01:37:49;57.20;;;31.70;;
67352;SDS011;54238;52.278;21.056;2023-02-24T01:40:16;51.50;;;27.50;;
67352;SDS011;54238;52.278;21.056;2023-02-24T01:42:51;47.50;;;23.90;;
67352;SDS011;54238;52.278;21.056;2023-02-24T01:45:23;55.10;;;28.00;;
67352;SDS011;54238;52.278;21.056;2023-02-24T01:47:59;55.00;;;27.40;;
67352;SDS011;54238;52.278;21.056;2023-02-24T01:50:33;49.20;;;27.70;;
67352;SDS011;54238;52.278;21.056;2023-02-24T01:53:05;53.90;;;27.60;;
67352;SDS011;54238;52.278;21.056;2023-02-24T01:55:44;52.00;;;29.00;;
67352;SDS011;54238;52.278;21.056;2023-02-24T01:58:26;49.70;;;26.00;;
67352;SDS011;54238;52.278;21.056;2023-02-24T02:00:55;44.60;;;24.20;;
67352;SDS011;54238;52.278;21.056;2023-02-24T02:03:29;55.40;;;26.90;;
67352;SDS011;54238;52.278;21.056;2023-02-24T02:06:05;54.10;;;26.20;;
67352;SDS011;54238;52.278;21.056;2023-02-24T02:08:39;57.10;;;30.10;;
67352;SDS011;54238;52.278;21.056;2023-02-24T02:11:15;56.00;;;29.70;;
67352;SDS011;54238;52.278;21.056;2023-02-24T02:13:52;51.50;;;27.70;;
67352;SDS011;54238;52.278;21.056;2023-02-24T02:19:28;57.90;;;29.30;;
67352;SDS011;54238;52.278;21.056;2023-02-24T02:29:59;54.40;;;25.90;;
67352;SDS011;54238;52.278;21.056;2023-02-24T02:35:20;49.30;;;27.20;;
67352;SDS011;54238;52.278;21.056;2023-02-24T02:41:24;48.00;;;26.40;;
67352;SDS011;54238;52.278;21.056;2023-02-24T02:47:28;60.20;;;31.40;;
67352;SDS011;54238;52.278;21.056;2023-02-24T02:50:09;53.80;;;26.00;;
67352;SDS011;54238;52.278;21.056;2023-02-24T02:53:07;49.30;;;23.50;;
67352;SDS011;54238;52.278;21.056;2023-02-24T02:55:47;55.10;;;29.60;;
67352;SDS011;54238;52.278;21.056;2023-02-24T03:01:09;46.70;;;22.10;;
67352;SDS011;54238;52.278;21.056;2023-02-24T03:03:41;53.50;;;26.90;;
67352;SDS011;54238;52.278;21.056;2023-02-24T03:09:17;49.40;;;25.40;;
67352;SDS011;54238;52.278;21.056;2023-02-24T03:11:55;41.30;;;22.50;;
67352;SDS011;54238;52.278;21.056;2023-02-24T03:14:31;50.90;;;23.50;;
67352;SDS011;54238;52.278;21.056;2023-02-24T03:17:21;47.30;;;23.40;;
67352;SDS011;54238;52.278;21.056;2023-02-24T03:23:28;55.80;;;27.80;;
67352;SDS011;54238;52.278;21.056;2023-02-24T03:26:14;52.50;;;26.60;;
67352;SDS011;54238;52.278;21.056;2023-02-24T03:34:29;64.40;;;32.10;;
67352;SDS011;54238;52.278;21.056;2023-02-24T03:37:19;52.60;;;29.90;;
67352;SDS011;54238;52.278;21.056;2023-02-24T03:39:58;58.50;;;29.00;;
67352;SDS011;54238;52.278;21.056;2023-02-24T03:42:40;57.20;;;31.80;;
67352;SDS011;54238;52.278;21.056;2023-02-24T03:45:13;48.60;;;25.60;;
67352;SDS011;54238;52.278;21.056;2023-02-24T03:47:49;57.90;;;30.60;;
67352;SDS011;54238;52.278;21.056;2023-02-24T03:50:21;59.30;;;29.90;;
67352;SDS011;54238;52.278;21.056;2023-02-24T03:53:11;64.40;;;32.00;;
67352;SDS011;54238;52.278;21.056;2023-02-24T03:59:39;49.50;;;26.10;;
67352;SDS011;54238;52.278;21.056;2023-02-24T04:02:24;63.30;;;31.80;;
67352;SDS011;54238;52.278;21.056;2023-02-24T04:04:58;55.10;;;28.60;;
67352;SDS011;54238;52.278;21.056;2023-02-24T04:13:10;52.10;;;27.70;;
67352;SDS011;54238;52.278;21.056;2023-02-24T04:16:21;56.20;;;31.30;;
67352;SDS011;54238;52.278;21.056;2023-02-24T04:19:04;54.80;;;31.00;;
67352;SDS011;54238;52.278;21.056;2023-02-24T04:21:48;61.20;;;33.60;;
67352;SDS011;54238;52.278;21.056;2023-02-24T04:24:21;48.60;;;27.30;;
67352;SDS011;54238;52.278;21.056;2023-02-24T04:26:59;71.60;;;35.10;;
67352;SDS011;54238;52.278;21.056;2023-02-24T04:29:51;60.50;;;33.40;;
67352;SDS011;54238;52.278;21.056;2023-02-24T04:32:50;66.50;;;31.60;;
67352;SDS011;54238;52.278;21.056;2023-02-24T04:35:26;55.60;;;30.20;;
67352;SDS011;54238;52.278;21.056;2023-02-24T04:37:54;68.90;;;36.50;;
67352;SDS011;54238;52.278;21.056;2023-02-24T04:40:28;60.80;;;31.70;;
67352;SDS011;54238;52.278;21.056;2023-02-24T04:42:58;66.00;;;34.80;;
67352;SDS011;54238;52.278;21.056;2023-02-24T04:45:29;58.00;;;31.10;;
67352;SDS011;54238;52.278;21.056;2023-02-24T04:48:00;60.90;;;31.90;;
67352;SDS011;54238;52.278;21.056;2023-02-24T04:53:17;65.60;;;31.50;;
67352;SDS011;54238;52.278;21.056;2023-02-24T04:56:02;51.40;;;26.40;;
67352;SDS011;54238;52.278;21.056;2023-02-24T04:58:38;73.90;;;39.60;;
67352;SDS011;54238;52.278;21.056;2023-02-24T05:01:09;73.70;;;36.90;;
67352;SDS011;54238;52.278;21.056;2023-02-24T05:03:37;58.70;;;30.70;;
67352;SDS011;54238;52.278;21.056;2023-02-24T05:06:14;78.20;;;41.60;;
67352;SDS011;54238;52.278;21.056;2023-02-24T05:08:44;62.40;;;34.30;;
67352;SDS011;54238;52.278;21.056;2023-02-24T05:11:15;76.30;;;39.10;;
67352;SDS011;54238;52.278;21.056;2023-02-24T05:13:46;68.80;;;37.20;;
67352;SDS011;54238;52.278;21.056;2023-02-24T05:16:16;68.20;;;35.00;;
67352;SDS011;54238;52.278;21.056;2023-02-24T05:18:46;74.90;;;39.90;;
67352;SDS011;54238;52.278;21.056;2023-02-24T05:21:18;73.20;;;40.10;;
67352;SDS011;54238;52.278;21.056;2023-02-24T05:24:06;67.20;;;37.70;;
67352;SDS011;54238;52.278;21.056;2023-02-24T05:26:39;72.00;;;36.80;;
67352;SDS011;54238;52.278;21.056;2023-02-24T05:29:10;59.40;;;29.30;;
67352;SDS011;54238;52.278;21.056;2023-02-24T05:31:38;79.10;;;41.60;;
67352;SDS011;54238;52.278;21.056;2023-02-24T05:37:02;67.20;;;36.20;;
67352;SDS011;54238;52.278;21.056;2023-02-24T05:39:36;71.10;;;38.50;;
67352;SDS011;54238;52.278;21.056;2023-02-24T05:42:06;69.10;;;37.30;;
67352;SDS011;54238;52.278;21.056;2023-02-24T05:44:37;81.10;;;40.40;;
67352;SDS011;54238;52.278;21.056;2023-02-24T05:47:09;75.10;;;41.20;;
67352;SDS011;54238;52.278;21.056;2023-02-24T05:49:38;76.40;;;40.90;;
67352;SDS011;54238;52.278;21.056;2023-02-24T05:52:10;67.60;;;36.10;;
67352;SDS011;54238;52.278;21.056;2023-02-24T05:54:43;71.60;;;38.10;;
67352;SDS011;54238;52.278;21.056;2023-02-24T05:57:19;73.40;;;38.00;;
67352;SDS011;54238;52.278;21.056;2023-02-24T05:59:58;83.20;;;42.40;;
67352;SDS011;54238;52.278;21.056;2023-02-24T06:02:37;74.50;;;38.70;;
67352;SDS011;54238;52.278;21.056;2023-02-24T06:05:18;70.30;;;40.00;;
67352;SDS011;54238;52.278;21.056;2023-02-24T06:07:55;64.00;;;33.20;;
67352;SDS011;54238;52.278;21.056;2023-02-24T06:10:34;67.40;;;32.20;;
67352;SDS011;54238;52.278;21.056;2023-02-24T06:13:08;67.20;;;35.60;;
67352;SDS011;54238;52.278;21.056;2023-02-24T06:15:40;65.80;;;37.00;;
67352;SDS011;54238;52.278;21.056;2023-02-24T06:18:17;75.50;;;42.10;;
67352;SDS011;54238;52.278;21.056;2023-02-24T06:20:48;67.70;;;38.70;;
67352;SDS011;54238;52.278;21.056;2023-02-24T06:23:17;50.50;;;26.70;;
67352;SDS011;54238;52.278;21.056;2023-02-24T06:25:45;67.10;;;36.20;;
67352;SDS011;54238;52.278;21.056;2023-02-24T06:28:12;75.20;;;39.70;;
67352;SDS011;54238;52.278;21.056;2023-02-24T06:30:39;70.60;;;38.70;;
67352;SDS011;54238;52.278;21.056;2023-02-24T06:33:09;63.40;;;35.80;;
67352;SDS011;54238;52.278;21.056;2023-02-24T06:35:36;64.50;;;36.60;;
67352;SDS011;54238;52.278;21.056;2023-02-24T06:38:09;72.60;;;38.70;;
67352;SDS011;54238;52.278;21.056;2023-02-24T06:40:36;61.80;;;35.00;;
67352;SDS011;54238;52.278;21.056;2023-02-24T06:43:05;70.50;;;35.20;;
67352;SDS011;54238;52.278;21.056;2023-02-24T06:45:39;68.90;;;37.30;;
67352;SDS011;54238;52.278;21.056;2023-02-24T06:48:07;67.80;;;36.30;;
67352;SDS011;54238;52.278;21.056;2023-02-24T06:50:38;62.30;;;36.20;;
67352;SDS011;54238;52.278;21.056;2023-02-24T06:53:10;70.80;;;39.60;;
67352;SDS011;54238;52.278;21.056;2023-02-24T06:55:46;62.20;;;32.80;;
67352;SDS011;54238;52.278;21.056;2023-02-24T06:58:17;57.20;;;31.60;;
67352;SDS011;54238;52.278;21.056;2023-02-24T07:00:52;52.60;;;29.90;;
67352;SDS011;54238;52.278;21.056;2023-02-24T07:03:28;50.20;;;28.60;;
67352;SDS011;54238;52.278;21.056;2023-02-24T07:06:08;64.00;;;36.60;;
67352;SDS011;54238;52.278;21.056;2023-02-24T07:08:53;49.90;;;26.00;;
67352;SDS011;54238;52.278;21.056;2023-02-24T07:11:27;65.00;;;32.90;;
67352;SDS011;54238;52.278;21.056;2023-02-24T07:13:55;60.20;;;34.00;;
67352;SDS011;54238;52.278;21.056;2023-02-24T07:16:27;52.10;;;30.50;;
67352;SDS011;54238;52.278;21.056;2023-02-24T07:19:01;63.10;;;31.90;;
67352;SDS011;54238;52.278;21.056;2023-02-24T07:21:44;54.70;;;29.90;;
67352;SDS011;54238;52.278;21.056;2023-02-24T07:24:24;67.40;;;35.80;;
67352;SDS011;54238;52.278;21.056;2023-02-24T07:27:04;56.00;;;30.90;;
67352;SDS011;54238;52.278;21.056;2023-02-24T07:29:35;54.70;;;30.20;;
67352;SDS011;54238;52.278;21.056;2023-02-24T07:32:08;58.80;;;32.00;;
67352;SDS011;54238;52.278;21.056;2023-02-24T07:34:38;57.60;;;31.20;;
67352;SDS011;54238;52.278;21.056;2023-02-24T07:37:08;69.40;;;36.80;;
67352;SDS011;54238;52.278;21.056;2023-02-24T07:39:43;54.60;;;30.10;;
67352;SDS011;54238;52.278;21.056;2023-02-24T07:42:13;52.70;;;28.10;;
67352;SDS011;54238;52.278;21.056;2023-02-24T07:44:40;50.40;;;29.90;;
67352;SDS011;54238;52.278;21.056;2023-02-24T07:47:12;55.60;;;31.70;;
67352;SDS011;54238;52.278;21.056;2023-02-24T07:49:41;66.80;;;35.00;;
67352;SDS011;54238;52.278;21.056;2023-02-24T07:52:08;63.70;;;34.60;;
67352;SDS011;54238;52.278;21.056;2023-02-24T07:54:40;55.40;;;31.10;;
67352;SDS011;54238;52.278;21.056;2023-02-24T07:57:08;52.80;;;29.00;;
67352;SDS011;54238;52.278;21.056;2023-02-24T07:59:39;47.30;;;27.50;;
67352;SDS011;54238;52.278;21.056;2023-02-24T08:02:12;41.20;;;24.30;;
67352;SDS011;54238;52.278;21.056;2023-02-24T08:04:39;56.30;;;31.00;;
67352;SDS011;54238;52.278;21.056;2023-02-24T08:07:19;38.30;;;21.40;;
67352;SDS011;54238;52.278;21.056;2023-02-24T08:09:56;56.60;;;31.90;;
67352;SDS011;54238;52.278;21.056;2023-02-24T08:12:54;47.00;;;27.10;;
67352;SDS011;54238;52.278;21.056;2023-02-24T08:15:28;45.90;;;27.20;;
67352;SDS011;54238;52.278;21.056;2023-02-24T08:18:00;48.40;;;25.30;;
67352;SDS011;54238;52.278;21.056;2023-02-24T08:20:30;49.50;;;28.50;;
67352;SDS011;54238;52.278;21.056;2023-02-24T08:23:19;45.50;;;26.00;;
67352;SDS011;54238;52.278;21.056;2023-02-24T08:25:51;56.80;;;31.70;;
67352;SDS011;54238;52.278;21.056;2023-02-24T08:28:19;49.60;;;28.80;;
67352;SDS011;54238;52.278;21.056;2023-02-24T08:30:47;46.70;;;27.80;;
67352;SDS011;54238;52.278;21.056;2023-02-24T08:33:19;47.80;;;27.00;;
67352;SDS011;54238;52.278;21.056;2023-02-24T08:35:57;52.10;;;30.60;;
67352;SDS011;54238;52.278;21.056;2023-02-24T08:38:33;45.30;;;25.80;;
67352;SDS011;54238;52.278;21.056;2023-02-24T08:41:16;45.50;;;25.80;;
67352;SDS011;54238;52.278;21.056;2023-02-24T08:43:59;51.20;;;30.50;;
67352;SDS011;54238;52.278;21.056;2023-02-24T08:46:34;52.50;;;29.90;;
67352;SDS011;54238;52.278;21.056;2023-02-24T08:49:06;44.90;;;26.80;;
67352;SDS011;54238;52.278;21.056;2023-02-24T08:51:38;47.90;;;27.40;;
67352;SDS011;54238;52.278;21.056;2023-02-24T08:54:17;47.20;;;27.40;;
67352;SDS011;54238;52.278;21.056;2023-02-24T08:56:59;48.60;;;27.20;;
67352;SDS011;54238;52.278;21.056;2023-02-24T08:59:35;49.10;;;25.40;;
67352;SDS011;54238;52.278;21.056;2023-02-24T09:02:18;39.80;;;23.10;;
67352;SDS011;54238;52.278;21.056;2023-02-24T09:04:58;41.60;;;24.80;;
67352;SDS011;54238;52.278;21.056;2023-02-24T09:07:31;42.40;;;25.20;;
67352;SDS011;54238;52.278;21.056;2023-02-24T09:10:04;44.00;;;25.30;;
67352;SDS011;54238;52.278;21.056;2023-02-24T09:12:46;33.50;;;18.00;;
67352;SDS011;54238;52.278;21.056;2023-02-24T09:15:17;36.40;;;21.00;;
67352;SDS011;54238;52.278;21.056;2023-02-24T09:17:51;44.80;;;27.60;;
67352;SDS011;54238;52.278;21.056;2023-02-24T09:20:33;42.30;;;25.00;;
67352;SDS011;54238;52.278;21.056;2023-02-24T09:23:24;48.70;;;25.50;;
67352;SDS011;54238;52.278;21.056;2023-02-24T09:26:13;42.10;;;23.00;;
67352;SDS011;54238;52.278;21.056;2023-02-24T09:28:41;45.20;;;27.50;;
67352;SDS011;54238;52.278;21.056;2023-02-24T09:31:20;47.10;;;27.60;;
67352;SDS011;54238;52.278;21.056;2023-02-24T09:33:49;39.40;;;22.60;;
67352;SDS011;54238;52.278;21.056;2023-02-24T09:36:22;48.80;;;26.70;;
67352;SDS011;54238;52.278;21.056;2023-02-24T09:41:53;53.10;;;30.70;;
67352;SDS011;54238;52.278;21.056;2023-02-24T09:50:04;57.00;;;29.60;;
67352;SDS011;54238;52.278;21.056;2023-02-24T09:52:47;39.40;;;22.40;;
67352;SDS011;54238;52.278;21.056;2023-02-24T10:07:31;45.30;;;26.30;;
67352;SDS011;54238;52.278;21.056;2023-02-24T10:10:20;38.30;;;21.30;;
67352;SDS011;54238;52.278;21.056;2023-02-24T10:15:46;40.70;;;23.90;;
67352;SDS011;54238;52.278;21.056;2023-02-24T10:18:34;33.30;;;20.00;;
67352;SDS011;54238;52.278;21.056;2023-02-24T10:24:25;29.80;;;18.70;;
67352;SDS011;54238;52.278;21.056;2023-02-24T10:35:20;19.60;;;13.30;;
67352;SDS011;54238;52.278;21.056;2023-02-24T10:37:53;30.40;;;16.90;;
67352;SDS011;54238;52.278;21.056;2023-02-24T10:40:42;23.70;;;15.30;;
67352;SDS011;54238;52.278;21.056;2023-02-24T10:43:25;32.10;;;14.90;;
67352;SDS011;54238;52.278;21.056;2023-02-24T10:45:58;28.30;;;15.70;;
67352;SDS011;54238;52.278;21.056;2023-02-24T10:48:51;23.80;;;13.10;;
67352;SDS011;54238;52.278;21.056;2023-02-24T10:51:35;27.10;;;16.30;;
67352;SDS011;54238;52.278;21.056;2023-02-24T10:57:06;25.90;;;15.40;;
67352;SDS011;54238;52.278;21.056;2023-02-24T10:59:56;24.90;;;16.30;;
67352;SDS011;54238;52.278;21.056;2023-02-24T11:02:48;26.50;;;15.90;;
67352;SDS011;54238;52.278;21.056;2023-02-24T11:05:41;20.90;;;14.10;;
67352;SDS011;54238;52.278;21.056;2023-02-24T11:08:33;22.90;;;14.10;;
67352;SDS011;54238;52.278;21.056;2023-02-24T11:11:18;25.60;;;14.30;;
67352;SDS011;54238;52.278;21.056;2023-02-24T11:14:36;27.90;;;13.90;;
67352;SDS011;54238;52.278;21.056;2023-02-24T11:17:57;23.00;;;12.70;;
67352;SDS011;54238;52.278;21.056;2023-02-24T11:20:41;19.90;;;11.80;;
67352;SDS011;54238;52.278;21.056;2023-02-24T11:23:27;18.60;;;9.50;;
67352;SDS011;54238;52.278;21.056;2023-02-24T11:26:02;16.80;;;9.90;;
67352;SDS011;54238;52.278;21.056;2023-02-24T11:41:13;22.70;;;11.40;;
67352;SDS011;54238;52.278;21.056;2023-02-24T11:43:58;23.60;;;12.20;;
67352;SDS011;54238;52.278;21.056;2023-02-24T11:46:44;19.20;;;10.70;;
67352;SDS011;54238;52.278;21.056;2023-02-24T11:49:30;18.50;;;10.20;;
67352;SDS011;54238;52.278;21.056;2023-02-24T11:52:03;23.90;;;13.10;;
67352;SDS011;54238;52.278;21.056;2023-02-24T11:54:42;25.50;;;13.70;;
67352;SDS011;54238;52.278;21.056;2023-02-24T11:57:26;21.90;;;13.10;;
67352;SDS011;54238;52.278;21.056;2023-02-24T12:00:05;20.70;;;10.90;;
67352;SDS011;54238;52.278;21.056;2023-02-24T12:05:41;24.50;;;13.30;;
67352;SDS011;54238;52.278;21.056;2023-02-24T12:08:27;22.30;;;13.20;;
67352;SDS011;54238;52.278;21.056;2023-02-24T12:16:55;26.70;;;13.60;;
67352;SDS011;54238;52.278;21.056;2023-02-24T12:22:47;22.40;;;10.40;;
67352;SDS011;54238;52.278;21.056;2023-02-24T12:25:25;19.60;;;11.70;;
67352;SDS011;54238;52.278;21.056;2023-02-24T12:43:34;28.40;;;14.60;;
67352;SDS011;54238;52.278;21.056;2023-02-24T12:46:35;26.10;;;14.80;;
67352;SDS011;54238;52.278;21.056;2023-02-24T12:49:30;20.20;;;12.20;;
67352;SDS011;54238;52.278;21.056;2023-02-24T13:00:35;18.80;;;11.00;;
67352;SDS011;54238;52.278;21.056;2023-02-24T13:12:35;17.00;;;10.60;;
67352;SDS011;54238;52.278;21.056;2023-02-24T13:15:25;16.40;;;9.70;;
67352;SDS011;54238;52.278;21.056;2023-02-24T13:18:01;20.10;;;11.00;;
67352;SDS011;54238;52.278;21.056;2023-02-24T13:20:36;18.00;;;10.40;;
67352;SDS011;54238;52.278;21.056;2023-02-24T13:26:21;18.30;;;9.20;;
67352;SDS011;54238;52.278;21.056;2023-02-24T13:29:07;18.70;;;9.10;;
67352;SDS011;54238;52.278;21.056;2023-02-24T13:34:43;15.00;;;8.80;;
67352;SDS011;54238;52.278;21.056;2023-02-24T13:39:57;18.00;;;10.20;;
67352;SDS011;54238;52.278;21.056;2023-02-24T13:42:42;18.20;;;9.40;;
67352;SDS011;54238;52.278;21.056;2023-02-24T14:02:55;15.00;;;7.50;;
67352;SDS011;54238;52.278;21.056;2023-02-24T14:05:28;19.30;;;9.90;;
67352;SDS011;54238;52.278;21.056;2023-02-24T14:08:04;16.80;;;9.10;;
67352;SDS011;54238;52.278;21.056;2023-02-24T14:10:43;20.40;;;11.10;;
67352;SDS011;54238;52.278;21.056;2023-02-24T14:13:22;14.80;;;9.30;;
67352;SDS011;54238;52.278;21.056;2023-02-24T14:15:56;15.80;;;9.70;;
67352;SDS011;54238;52.278;21.056;2023-02-24T14:18:27;16.70;;;9.50;;
67352;SDS011;54238;52.278;21.056;2023-02-24T14:21:01;18.30;;;9.70;;
67352;SDS011;54238;52.278;21.056;2023-02-24T14:23:33;18.30;;;10.10;;
67352;SDS011;54238;52.278;21.056;2023-02-24T14:26:10;17.30;;;9.60;;
67352;SDS011;54238;52.278;21.056;2023-02-24T14:28:57;18.20;;;9.30;;
67352;SDS011;54238;52.278;21.056;2023-02-24T14:31:29;18.30;;;9.90;;
67352;SDS011;54238;52.278;21.056;2023-02-24T14:34:06;19.70;;;10.80;;
67352;SDS011;54238;52.278;21.056;2023-02-24T14:36:44;17.70;;;9.80;;
67352;SDS011;54238;52.278;21.056;2023-02-24T14:42:12;23.20;;;12.20;;
67352;SDS011;54238;52.278;21.056;2023-02-24T14:44:51;19.90;;;11.50;;
67352;SDS011;54238;52.278;21.056;2023-02-24T14:47:23;22.50;;;11.90;;
67352;SDS011;54238;52.278;21.056;2023-02-24T14:49:53;20.30;;;10.00;;
67352;SDS011;54238;52.278;21.056;2023-02-24T14:55:31;18.20;;;11.60;;
67352;SDS011;54238;52.278;21.056;2023-02-24T14:58:20;20.50;;;11.50;;
67352;SDS011;54238;52.278;21.056;2023-02-24T15:01:13;17.50;;;11.00;;
67352;SDS011;54238;52.278;21.056;2023-02-24T15:03:53;18.10;;;10.60;;
67352;SDS011;54238;52.278;21.056;2023-02-24T15:06:28;21.90;;;12.00;;
67352;SDS011;54238;52.278;21.056;2023-02-24T15:09:39;21.80;;;12.70;;
67352;SDS011;54238;52.278;21.056;2023-02-24T15:15:06;20.00;;;11.70;;
67352;SDS011;54238;52.278;21.056;2023-02-24T15:17:46;22.70;;;12.40;;
67352;SDS011;54238;52.278;21.056;2023-02-24T15:23:04;21.20;;;13.90;;
67352;SDS011;54238;52.278;21.056;2023-02-24T15:25:47;20.50;;;12.70;;
67352;SDS011;54238;52.278;21.056;2023-02-24T15:28:26;19.70;;;11.70;;
67352;SDS011;54238;52.278;21.056;2023-02-24T15:31:04;21.80;;;14.30;;
67352;SDS011;54238;52.278;21.056;2023-02-24T15:33:35;20.20;;;12.30;;
67352;SDS011;54238;52.278;21.056;2023-02-24T15:36:14;17.10;;;11.40;;
67352;SDS011;54238;52.278;21.056;2023-02-24T15:38:51;19.50;;;12.70;;
67352;SDS011;54238;52.278;21.056;2023-02-24T15:41:36;22.90;;;14.00;;
67352;SDS011;54238;52.278;21.056;2023-02-24T15:44:32;21.30;;;13.90;;
67352;SDS011;54238;52.278;21.056;2023-02-24T15:47:19;22.70;;;13.50;;
67352;SDS011;54238;52.278;21.056;2023-02-24T15:49:53;20.70;;;11.60;;
67352;SDS011;54238;52.278;21.056;2023-02-24T15:52:27;13.40;;;9.20;;
67352;SDS011;54238;52.278;21.056;2023-02-24T15:54:58;20.80;;;11.40;;
67352;SDS011;54238;52.278;21.056;2023-02-24T15:57:34;22.10;;;12.00;;
67352;SDS011;54238;52.278;21.056;2023-02-24T16:00:04;17.50;;;11.60;;
67352;SDS011;54238;52.278;21.056;2023-02-24T16:02:40;16.30;;;9.90;;
67352;SDS011;54238;52.278;21.056;2023-02-24T16:05:14;16.30;;;11.40;;
67352;SDS011;54238;52.278;21.056;2023-02-24T16:07:45;14.90;;;9.60;;
67352;SDS011;54238;52.278;21.056;2023-02-24T16:10:19;15.30;;;10.00;;
67352;SDS011;54238;52.278;21.056;2023-02-24T16:12:58;13.60;;;9.50;;
67352;SDS011;54238;52.278;21.056;2023-02-24T16:15:32;16.90;;;10.40;;
67352;SDS011;54238;52.278;21.056;2023-02-24T16:18:05;17.00;;;9.90;;
67352;SDS011;54238;52.278;21.056;2023-02-24T16:20:47;16.70;;;9.70;;
67352;SDS011;54238;52.278;21.056;2023-02-24T16:23:21;14.90;;;8.90;;
67352;SDS011;54238;52.278;21.056;2023-02-24T16:25:56;18.10;;;8.80;;
67352;SDS011;54238;52.278;21.056;2023-02-24T16:28:33;17.40;;;9.20;;
67352;SDS011;54238;52.278;21.056;2023-02-24T16:31:02;13.60;;;8.50;;
67352;SDS011;54238;52.278;21.056;2023-02-24T16:33:32;12.70;;;7.20;;
67352;SDS011;54238;52.278;21.056;2023-02-24T16:36:09;11.00;;;6.00;;
67352;SDS011;54238;52.278;21.056;2023-02-24T16:38:41;15.80;;;7.80;;
67352;SDS011;54238;52.278;21.056;2023-02-24T16:41:11;11.00;;;6.40;;
67352;SDS011;54238;52.278;21.056;2023-02-24T16:43:44;16.90;;;7.40;;
67352;SDS011;54238;52.278;21.056;2023-02-24T16:46:18;14.30;;;5.80;;
67352;SDS011;54238;52.278;21.056;2023-02-24T16:48:50;13.60;;;8.20;;
67352;SDS011;54238;52.278;21.056;2023-02-24T16:51:22;13.90;;;7.10;;
67352;SDS011;54238;52.278;21.056;2023-02-24T16:53:50;13.00;;;7.00;;
67352;SDS011;54238;52.278;21.056;2023-02-24T16:56:21;12.30;;;6.40;;
67352;SDS011;54238;52.278;21.056;2023-02-24T16:58:53;16.90;;;7.30;;
67352;SDS011;54238;52.278;21.056;2023-02-24T17:01:24;15.10;;;5.80;;
67352;SDS011;54238;52.278;21.056;2023-02-24T17:03:52;12.20;;;6.30;;
67352;SDS011;54238;52.278;21.056;2023-02-24T17:06:25;18.70;;;7.90;;
67352;SDS011;54238;52.278;21.056;2023-02-24T17:08:55;17.00;;;7.00;;
67352;SDS011;54238;52.278;21.056;2023-02-24T17:11:25;16.40;;;6.60;;
67352;SDS011;54238;52.278;21.056;2023-02-24T17:14:00;16.20;;;8.20;;
67352;SDS011;54238;52.278;21.056;2023-02-24T17:16:27;13.20;;;6.50;;
67352;SDS011;54238;52.278;21.056;2023-02-24T17:18:54;14.40;;;6.30;;
67352;SDS011;54238;52.278;21.056;2023-02-24T17:21:21;15.00;;;6.90;;
67352;SDS011;54238;52.278;21.056;2023-02-24T17:23:55;12.80;;;7.10;;
67352;SDS011;54238;52.278;21.056;2023-02-24T17:26:22;15.10;;;6.70;;
67352;SDS011;54238;52.278;21.056;2023-02-24T17:28:52;19.30;;;7.60;;
67352;SDS011;54238;52.278;21.056;2023-02-24T17:31:21;16.70;;;7.20;;
67352;SDS011;54238;52.278;21.056;2023-02-24T17:33:48;13.40;;;6.90;;
67352;SDS011;54238;52.278;21.056;2023-02-24T17:36:15;14.00;;;7.10;;
67352;SDS011;54238;52.278;21.056;2023-02-24T17:38:43;14.00;;;6.90;;
67352;SDS011;54238;52.278;21.056;2023-02-24T17:41:15;12.20;;;7.00;;
67352;SDS011;54238;52.278;21.056;2023-02-24T17:43:45;14.40;;;5.90;;
67352;SDS011;54238;52.278;21.056;2023-02-24T17:46:12;12.90;;;6.80;;
67352;SDS011;54238;52.278;21.056;2023-02-24T17:48:42;15.80;;;7.50;;
67352;SDS011;54238;52.278;21.056;2023-02-24T17:51:14;15.60;;;6.60;;
67352;SDS011;54238;52.278;21.056;2023-02-24T17:53:45;15.20;;;7.10;;
67352;SDS011;54238;52.278;21.056;2023-02-24T17:56:12;14.30;;;6.00;;
67352;SDS011;54238;52.278;21.056;2023-02-24T17:58:41;20.80;;;6.20;;
67352;SDS011;54238;52.278;21.056;2023-02-24T18:01:13;17.60;;;6.10;;
67352;SDS011;54238;52.278;21.056;2023-02-24T18:03:40;15.60;;;6.50;;
67352;SDS011;54238;52.278;21.056;2023-02-24T18:06:11;10.00;;;6.00;;
67352;SDS011;54238;52.278;21.056;2023-02-24T18:08:43;14.00;;;6.30;;
67352;SDS011;54238;52.278;21.056;2023-02-24T18:11:16;18.90;;;6.20;;